sensor_id;sensor_type;location;lat;lon;timestamp;P1;durP1;ratioP1;P2;durP2;ratioP2
70667;SDS011;58242;51.250;-1.118;2023-06-26T00:02:23;2.03;;;1.90;;
70667;SDS011;58242;51.250;-1.118;2023-06-26T00:04:49;1.63;;;1.52;;
70667;SDS011;58242;51.250;-1.118;2023-06-26T00:07:19;1.90;;;1.80;;
70667;SDS011;58242;51.250;-1.118;2023-06-26T00:09:44;2.17;;;1.95;;
70667;SDS011;58242;51.250;-1.118;2023-06-26T00:12:10;1.58;;;1.48;;
70667;SDS011;58242;51.250;-1.118;2023-06-26T00:14:36;2.55;;;1.92;;
70667;SDS011;58242;51.250;-1.118;2023-06-26T00:17:01;2.17;;;1.80;;
70667;SDS011;58242;51.250;-1.118;2023-06-26T00:19:26;1.85;;;1.75;;
70667;SDS011;58242;51.250;-1.118;2023-06-26T00:21:52;1.63;;;1.52;;
70667;SDS011;58242;51.250;-1.118;2023-06-26T00:24:17;2.58;;;1.90;;
70667;SDS011;58242;51.250;-1.118;2023-06-26T00:26:45;2.40;;;2.20;;
70667;SDS011;58242;51.250;-1.118;2023-06-26T00:29:11;1.67;;;1.58;;
70667;SDS011;58242;51.250;-1.118;2023-06-26T00:31:37;2.08;;;1.70;;
70667;SDS011;58242;51.250;-1.118;2023-06-26T00:34:03;2.05;;;1.92;;
70667;SDS011;58242;51.250;-1.118;2023-06-26T00:36:28;2.03;;;1.67;;
70667;SDS011;58242;51.250;-1.118;2023-06-26T00:38:53;1.85;;;1.75;;
70667;SDS011;58242;51.250;-1.118;2023-06-26T00:41:19;2.13;;;1.90;;
70667;SDS011;58242;51.250;-1.118;2023-06-26T00:43:44;1.80;;;1.67;;
70667;SDS011;58242;51.250;-1.118;2023-06-26T00:46:10;2.17;;;2.00;;
70667;SDS011;58242;51.250;-1.118;2023-06-26T00:48:39;3.33;;;2.03;;
70667;SDS011;58242;51.250;-1.118;2023-06-26T00:51:06;1.67;;;1.42;;
70667;SDS011;58242;51.250;-1.118;2023-06-26T00:53:32;1.60;;;1.50;;
70667;SDS011;58242;51.250;-1.118;2023-06-26T00:55:58;2.13;;;1.50;;
70667;SDS011;58242;51.250;-1.118;2023-06-26T00:58:24;3.05;;;1.90;;
70667;SDS011;58242;51.250;-1.118;2023-06-26T01:00:53;1.48;;;1.38;;
70667;SDS011;58242;51.250;-1.118;2023-06-26T01:03:19;2.97;;;2.08;;
70667;SDS011;58242;51.250;-1.118;2023-06-26T01:05:48;2.15;;;1.80;;
70667;SDS011;58242;51.250;-1.118;2023-06-26T01:08:18;3.45;;;2.10;;
70667;SDS011;58242;51.250;-1.118;2023-06-26T01:10:45;2.88;;;1.90;;
70667;SDS011;58242;51.250;-1.118;2023-06-26T01:13:11;2.53;;;1.90;;
70667;SDS011;58242;51.250;-1.118;2023-06-26T01:15:37;2.22;;;1.70;;
70667;SDS011;58242;51.250;-1.118;2023-06-26T01:18:03;3.30;;;2.00;;
70667;SDS011;58242;51.250;-1.118;2023-06-26T01:20:35;1.77;;;1.67;;
70667;SDS011;58242;51.250;-1.118;2023-06-26T01:31:06;5.13;;;1.83;;
70667;SDS011;58242;51.250;-1.118;2023-06-26T01:33:32;3.03;;;2.17;;
70667;SDS011;58242;51.250;-1.118;2023-06-26T01:35:58;1.90;;;1.73;;
70667;SDS011;58242;51.250;-1.118;2023-06-26T01:38:23;3.90;;;2.10;;
70667;SDS011;58242;51.250;-1.118;2023-06-26T01:40:49;4.05;;;1.70;;
70667;SDS011;58242;51.250;-1.118;2023-06-26T01:43:29;1.77;;;1.65;;
70667;SDS011;58242;51.250;-1.118;2023-06-26T01:46:04;3.53;;;1.70;;
70667;SDS011;58242;51.250;-1.118;2023-06-26T01:48:35;4.07;;;2.20;;
70667;SDS011;58242;51.250;-1.118;2023-06-26T01:51:09;1.98;;;1.77;;
70667;SDS011;58242;51.250;-1.118;2023-06-26T01:53:36;1.90;;;1.80;;
70667;SDS011;58242;51.250;-1.118;2023-06-26T01:56:12;2.00;;;1.80;;
70667;SDS011;58242;51.250;-1.118;2023-06-26T01:58:43;1.95;;;1.80;;
70667;SDS011;58242;51.250;-1.118;2023-06-26T02:01:10;3.90;;;1.80;;
70667;SDS011;58242;51.250;-1.118;2023-06-26T02:03:36;1.92;;;1.80;;
70667;SDS011;58242;51.250;-1.118;2023-06-26T02:06:01;2.00;;;1.88;;
70667;SDS011;58242;51.250;-1.118;2023-06-26T02:08:27;3.95;;;1.92;;
70667;SDS011;58242;51.250;-1.118;2023-06-26T02:10:52;4.32;;;2.00;;
70667;SDS011;58242;51.250;-1.118;2023-06-26T02:13:18;3.08;;;2.17;;
70667;SDS011;58242;51.250;-1.118;2023-06-26T02:15:43;2.58;;;2.08;;
70667;SDS011;58242;51.250;-1.118;2023-06-26T02:18:08;2.88;;;2.03;;
70667;SDS011;58242;51.250;-1.118;2023-06-26T02:20:34;2.20;;;2.10;;
70667;SDS011;58242;51.250;-1.118;2023-06-26T02:22:59;3.88;;;2.50;;
70667;SDS011;58242;51.250;-1.118;2023-06-26T02:25:24;2.88;;;1.90;;
70667;SDS011;58242;51.250;-1.118;2023-06-26T02:27:49;2.35;;;2.17;;
70667;SDS011;58242;51.250;-1.118;2023-06-26T02:30:15;2.75;;;1.70;;
70667;SDS011;58242;51.250;-1.118;2023-06-26T02:32:40;2.35;;;1.98;;
70667;SDS011;58242;51.250;-1.118;2023-06-26T02:35:06;1.90;;;1.80;;
70667;SDS011;58242;51.250;-1.118;2023-06-26T02:37:31;2.45;;;2.00;;
70667;SDS011;58242;51.250;-1.118;2023-06-26T02:39:57;2.90;;;1.55;;
70667;SDS011;58242;51.250;-1.118;2023-06-26T02:42:22;2.92;;;2.08;;
70667;SDS011;58242;51.250;-1.118;2023-06-26T02:44:48;1.70;;;1.60;;
70667;SDS011;58242;51.250;-1.118;2023-06-26T02:47:13;3.17;;;2.08;;
70667;SDS011;58242;51.250;-1.118;2023-06-26T02:49:39;3.80;;;2.38;;
70667;SDS011;58242;51.250;-1.118;2023-06-26T02:52:04;2.42;;;1.70;;
70667;SDS011;58242;51.250;-1.118;2023-06-26T02:54:29;2.00;;;1.83;;
70667;SDS011;58242;51.250;-1.118;2023-06-26T02:56:55;1.98;;;1.50;;
70667;SDS011;58242;51.250;-1.118;2023-06-26T02:59:20;1.77;;;1.70;;
70667;SDS011;58242;51.250;-1.118;2023-06-26T03:01:45;2.08;;;1.80;;
70667;SDS011;58242;51.250;-1.118;2023-06-26T03:04:11;2.35;;;1.80;;
70667;SDS011;58242;51.250;-1.118;2023-06-26T03:06:36;1.73;;;1.63;;
70667;SDS011;58242;51.250;-1.118;2023-06-26T03:09:01;1.70;;;1.60;;
70667;SDS011;58242;51.250;-1.118;2023-06-26T03:11:27;1.80;;;1.70;;
70667;SDS011;58242;51.250;-1.118;2023-06-26T03:13:53;1.92;;;1.77;;
70667;SDS011;58242;51.250;-1.118;2023-06-26T03:16:18;2.03;;;1.70;;
70667;SDS011;58242;51.250;-1.118;2023-06-26T03:18:44;1.38;;;1.27;;
70667;SDS011;58242;51.250;-1.118;2023-06-26T03:21:09;1.52;;;1.42;;
70667;SDS011;58242;51.250;-1.118;2023-06-26T03:23:35;1.60;;;1.50;;
70667;SDS011;58242;51.250;-1.118;2023-06-26T03:26:00;2.42;;;1.90;;
70667;SDS011;58242;51.250;-1.118;2023-06-26T03:28:25;1.77;;;1.67;;
70667;SDS011;58242;51.250;-1.118;2023-06-26T03:30:51;1.80;;;1.67;;
70667;SDS011;58242;51.250;-1.118;2023-06-26T03:33:16;2.60;;;2.03;;
70667;SDS011;58242;51.250;-1.118;2023-06-26T03:35:41;1.92;;;1.75;;
70667;SDS011;58242;51.250;-1.118;2023-06-26T03:38:07;2.88;;;1.90;;
70667;SDS011;58242;51.250;-1.118;2023-06-26T03:40:32;1.75;;;1.65;;
70667;SDS011;58242;51.250;-1.118;2023-06-26T03:42:57;2.55;;;1.77;;
70667;SDS011;58242;51.250;-1.118;2023-06-26T03:45:23;1.75;;;1.65;;
70667;SDS011;58242;51.250;-1.118;2023-06-26T03:47:48;2.15;;;1.98;;
70667;SDS011;58242;51.250;-1.118;2023-06-26T03:50:17;2.03;;;1.67;;
70667;SDS011;58242;51.250;-1.118;2023-06-26T03:52:42;1.83;;;1.60;;
70667;SDS011;58242;51.250;-1.118;2023-06-26T03:55:08;1.80;;;1.70;;
70667;SDS011;58242;51.250;-1.118;2023-06-26T03:57:34;3.17;;;1.92;;
70667;SDS011;58242;51.250;-1.118;2023-06-26T03:59:59;1.70;;;1.60;;
70667;SDS011;58242;51.250;-1.118;2023-06-26T04:02:24;2.00;;;1.73;;
70667;SDS011;58242;51.250;-1.118;2023-06-26T04:04:50;1.75;;;1.65;;
70667;SDS011;58242;51.250;-1.118;2023-06-26T04:07:15;2.00;;;1.90;;
70667;SDS011;58242;51.250;-1.118;2023-06-26T04:09:40;3.20;;;2.42;;
70667;SDS011;58242;51.250;-1.118;2023-06-26T04:12:06;4.10;;;2.00;;
70667;SDS011;58242;51.250;-1.118;2023-06-26T04:14:31;5.32;;;2.10;;
70667;SDS011;58242;51.250;-1.118;2023-06-26T04:16:57;2.45;;;2.00;;
70667;SDS011;58242;51.250;-1.118;2023-06-26T04:19:23;2.85;;;2.05;;
70667;SDS011;58242;51.250;-1.118;2023-06-26T04:21:48;2.08;;;1.88;;
70667;SDS011;58242;51.250;-1.118;2023-06-26T04:24:13;2.45;;;2.05;;
70667;SDS011;58242;51.250;-1.118;2023-06-26T04:26:39;4.88;;;2.05;;
70667;SDS011;58242;51.250;-1.118;2023-06-26T04:29:06;1.60;;;1.60;;
70667;SDS011;58242;51.250;-1.118;2023-06-26T04:31:31;2.13;;;2.03;;
70667;SDS011;58242;51.250;-1.118;2023-06-26T04:33:57;1.98;;;1.80;;
70667;SDS011;58242;51.250;-1.118;2023-06-26T04:36:22;1.95;;;1.85;;
70667;SDS011;58242;51.250;-1.118;2023-06-26T04:38:48;2.38;;;2.00;;
70667;SDS011;58242;51.250;-1.118;2023-06-26T04:41:14;3.20;;;2.10;;
70667;SDS011;58242;51.250;-1.118;2023-06-26T04:43:39;2.88;;;2.13;;
70667;SDS011;58242;51.250;-1.118;2023-06-26T04:46:05;3.53;;;2.20;;
70667;SDS011;58242;51.250;-1.118;2023-06-26T04:48:31;2.20;;;2.08;;
70667;SDS011;58242;51.250;-1.118;2023-06-26T04:50:56;2.22;;;1.98;;
70667;SDS011;58242;51.250;-1.118;2023-06-26T04:53:24;2.42;;;2.00;;
70667;SDS011;58242;51.250;-1.118;2023-06-26T04:55:50;4.25;;;2.20;;
70667;SDS011;58242;51.250;-1.118;2023-06-26T04:58:16;3.55;;;2.25;;
70667;SDS011;58242;51.250;-1.118;2023-06-26T05:00:42;2.83;;;2.35;;
70667;SDS011;58242;51.250;-1.118;2023-06-26T05:03:07;2.05;;;1.67;;
70667;SDS011;58242;51.250;-1.118;2023-06-26T05:05:34;1.80;;;1.70;;
70667;SDS011;58242;51.250;-1.118;2023-06-26T05:08:12;2.20;;;1.70;;
70667;SDS011;58242;51.250;-1.118;2023-06-26T05:10:47;2.17;;;1.85;;
70667;SDS011;58242;51.250;-1.118;2023-06-26T05:13:13;2.22;;;2.00;;
70667;SDS011;58242;51.250;-1.118;2023-06-26T05:15:42;4.25;;;2.30;;
70667;SDS011;58242;51.250;-1.118;2023-06-26T05:18:07;4.40;;;2.20;;
70667;SDS011;58242;51.250;-1.118;2023-06-26T05:20:33;4.88;;;2.15;;
70667;SDS011;58242;51.250;-1.118;2023-06-26T05:23:00;2.92;;;2.20;;
70667;SDS011;58242;51.250;-1.118;2023-06-26T05:25:27;2.25;;;2.15;;
70667;SDS011;58242;51.250;-1.118;2023-06-26T05:27:54;4.68;;;2.45;;
70667;SDS011;58242;51.250;-1.118;2023-06-26T05:30:20;2.40;;;2.20;;
70667;SDS011;58242;51.250;-1.118;2023-06-26T05:32:46;2.35;;;1.95;;
70667;SDS011;58242;51.250;-1.118;2023-06-26T05:35:13;4.43;;;2.17;;
70667;SDS011;58242;51.250;-1.118;2023-06-26T05:37:38;2.88;;;2.20;;
70667;SDS011;58242;51.250;-1.118;2023-06-26T05:40:06;2.03;;;1.80;;
70667;SDS011;58242;51.250;-1.118;2023-06-26T05:42:33;2.92;;;1.90;;
70667;SDS011;58242;51.250;-1.118;2023-06-26T05:44:59;3.28;;;2.25;;
70667;SDS011;58242;51.250;-1.118;2023-06-26T05:47:24;2.10;;;1.88;;
70667;SDS011;58242;51.250;-1.118;2023-06-26T05:49:49;3.53;;;2.00;;
70667;SDS011;58242;51.250;-1.118;2023-06-26T05:52:15;3.60;;;2.08;;
70667;SDS011;58242;51.250;-1.118;2023-06-26T05:54:40;3.70;;;1.95;;
70667;SDS011;58242;51.250;-1.118;2023-06-26T05:57:06;3.67;;;2.25;;
70667;SDS011;58242;51.250;-1.118;2023-06-26T05:59:31;2.25;;;2.03;;
70667;SDS011;58242;51.250;-1.118;2023-06-26T06:01:57;4.57;;;2.22;;
70667;SDS011;58242;51.250;-1.118;2023-06-26T06:04:22;2.47;;;1.70;;
70667;SDS011;58242;51.250;-1.118;2023-06-26T06:06:48;4.22;;;2.10;;
70667;SDS011;58242;51.250;-1.118;2023-06-26T06:09:13;2.90;;;2.15;;
70667;SDS011;58242;51.250;-1.118;2023-06-26T06:11:38;3.08;;;2.08;;
70667;SDS011;58242;51.250;-1.118;2023-06-26T06:14:04;2.10;;;1.92;;
70667;SDS011;58242;51.250;-1.118;2023-06-26T06:16:29;5.15;;;2.65;;
70667;SDS011;58242;51.250;-1.118;2023-06-26T06:18:54;4.07;;;2.55;;
70667;SDS011;58242;51.250;-1.118;2023-06-26T06:21:20;4.43;;;2.10;;
70667;SDS011;58242;51.250;-1.118;2023-06-26T06:23:45;1.80;;;1.70;;
70667;SDS011;58242;51.250;-1.118;2023-06-26T06:26:11;4.05;;;2.20;;
70667;SDS011;58242;51.250;-1.118;2023-06-26T06:28:37;3.45;;;2.15;;
70667;SDS011;58242;51.250;-1.118;2023-06-26T06:31:03;2.85;;;2.10;;
70667;SDS011;58242;51.250;-1.118;2023-06-26T06:33:29;2.90;;;2.00;;
70667;SDS011;58242;51.250;-1.118;2023-06-26T06:35:54;2.08;;;1.85;;
70667;SDS011;58242;51.250;-1.118;2023-06-26T06:38:19;6.47;;;2.30;;
70667;SDS011;58242;51.250;-1.118;2023-06-26T06:40:44;3.33;;;2.00;;
70667;SDS011;58242;51.250;-1.118;2023-06-26T06:43:10;4.38;;;2.20;;
70667;SDS011;58242;51.250;-1.118;2023-06-26T06:45:35;2.97;;;2.13;;
70667;SDS011;58242;51.250;-1.118;2023-06-26T06:48:02;7.68;;;2.30;;
70667;SDS011;58242;51.250;-1.118;2023-06-26T06:50:28;4.25;;;2.35;;
70667;SDS011;58242;51.250;-1.118;2023-06-26T06:52:53;3.15;;;2.30;;
70667;SDS011;58242;51.250;-1.118;2023-06-26T06:55:18;4.47;;;2.58;;
70667;SDS011;58242;51.250;-1.118;2023-06-26T06:57:43;7.22;;;3.10;;
70667;SDS011;58242;51.250;-1.118;2023-06-26T07:00:12;2.15;;;1.90;;
70667;SDS011;58242;51.250;-1.118;2023-06-26T07:02:42;3.05;;;2.35;;
70667;SDS011;58242;51.250;-1.118;2023-06-26T07:05:09;3.25;;;2.38;;
70667;SDS011;58242;51.250;-1.118;2023-06-26T07:07:35;4.85;;;2.22;;
70667;SDS011;58242;51.250;-1.118;2023-06-26T07:10:02;3.50;;;2.75;;
70667;SDS011;58242;51.250;-1.118;2023-06-26T07:12:29;2.63;;;1.92;;
70667;SDS011;58242;51.250;-1.118;2023-06-26T07:14:55;4.40;;;2.38;;
70667;SDS011;58242;51.250;-1.118;2023-06-26T07:17:21;4.50;;;2.55;;
70667;SDS011;58242;51.250;-1.118;2023-06-26T07:19:46;5.13;;;2.05;;
70667;SDS011;58242;51.250;-1.118;2023-06-26T07:22:12;3.03;;;2.20;;
70667;SDS011;58242;51.250;-1.118;2023-06-26T07:24:37;6.07;;;2.63;;
70667;SDS011;58242;51.250;-1.118;2023-06-26T07:27:03;3.08;;;2.50;;
70667;SDS011;58242;51.250;-1.118;2023-06-26T07:29:28;1.67;;;1.58;;
70667;SDS011;58242;51.250;-1.118;2023-06-26T07:31:53;3.22;;;2.08;;
70667;SDS011;58242;51.250;-1.118;2023-06-26T07:34:19;4.38;;;2.78;;
70667;SDS011;58242;51.250;-1.118;2023-06-26T07:36:44;2.30;;;2.03;;
70667;SDS011;58242;51.250;-1.118;2023-06-26T07:39:09;3.72;;;2.53;;
70667;SDS011;58242;51.250;-1.118;2023-06-26T07:41:35;3.85;;;2.10;;
70667;SDS011;58242;51.250;-1.118;2023-06-26T07:44:00;4.40;;;2.10;;
70667;SDS011;58242;51.250;-1.118;2023-06-26T07:46:25;1.95;;;1.77;;
70667;SDS011;58242;51.250;-1.118;2023-06-26T07:48:51;4.22;;;2.15;;
70667;SDS011;58242;51.250;-1.118;2023-06-26T07:51:16;4.25;;;2.10;;
70667;SDS011;58242;51.250;-1.118;2023-06-26T07:53:41;1.70;;;1.60;;
70667;SDS011;58242;51.250;-1.118;2023-06-26T07:56:07;3.95;;;2.42;;
70667;SDS011;58242;51.250;-1.118;2023-06-26T07:58:32;2.45;;;2.25;;
70667;SDS011;58242;51.250;-1.118;2023-06-26T08:00:57;2.33;;;1.88;;
70667;SDS011;58242;51.250;-1.118;2023-06-26T08:03:23;2.05;;;1.80;;
70667;SDS011;58242;51.250;-1.118;2023-06-26T08:05:48;3.90;;;2.28;;
70667;SDS011;58242;51.250;-1.118;2023-06-26T08:08:14;4.18;;;1.70;;
70667;SDS011;58242;51.250;-1.118;2023-06-26T08:10:39;3.05;;;1.83;;
70667;SDS011;58242;51.250;-1.118;2023-06-26T08:13:05;2.15;;;1.95;;
70667;SDS011;58242;51.250;-1.118;2023-06-26T08:15:30;1.75;;;1.65;;
70667;SDS011;58242;51.250;-1.118;2023-06-26T08:17:55;2.63;;;1.50;;
70667;SDS011;58242;51.250;-1.118;2023-06-26T08:20:21;2.22;;;1.83;;
70667;SDS011;58242;51.250;-1.118;2023-06-26T08:22:47;3.53;;;1.60;;
70667;SDS011;58242;51.250;-1.118;2023-06-26T08:25:14;3.22;;;1.80;;
70667;SDS011;58242;51.250;-1.118;2023-06-26T08:27:39;2.70;;;2.10;;
70667;SDS011;58242;51.250;-1.118;2023-06-26T08:30:05;3.70;;;2.22;;
70667;SDS011;58242;51.250;-1.118;2023-06-26T08:32:31;1.48;;;1.38;;
70667;SDS011;58242;51.250;-1.118;2023-06-26T08:34:56;2.08;;;1.67;;
70667;SDS011;58242;51.250;-1.118;2023-06-26T08:37:21;1.77;;;1.40;;
70667;SDS011;58242;51.250;-1.118;2023-06-26T08:39:47;2.13;;;1.52;;
70667;SDS011;58242;51.250;-1.118;2023-06-26T08:42:13;1.45;;;1.27;;
70667;SDS011;58242;51.250;-1.118;2023-06-26T08:44:38;1.65;;;1.50;;
70667;SDS011;58242;51.250;-1.118;2023-06-26T08:47:04;2.65;;;1.60;;
70667;SDS011;58242;51.250;-1.118;2023-06-26T08:49:33;2.60;;;1.50;;
70667;SDS011;58242;51.250;-1.118;2023-06-26T08:52:20;2.45;;;1.85;;
70667;SDS011;58242;51.250;-1.118;2023-06-26T08:54:51;2.03;;;1.60;;
70667;SDS011;58242;51.250;-1.118;2023-06-26T08:57:21;2.08;;;1.58;;
70667;SDS011;58242;51.250;-1.118;2023-06-26T08:59:48;1.95;;;1.40;;
70667;SDS011;58242;51.250;-1.118;2023-06-26T09:02:13;1.60;;;1.50;;
70667;SDS011;58242;51.250;-1.118;2023-06-26T09:04:39;1.40;;;1.30;;
70667;SDS011;58242;51.250;-1.118;2023-06-26T09:07:05;1.27;;;1.20;;
70667;SDS011;58242;51.250;-1.118;2023-06-26T09:09:30;1.35;;;1.25;;
70667;SDS011;58242;51.250;-1.118;2023-06-26T09:11:56;1.30;;;1.20;;
70667;SDS011;58242;51.250;-1.118;2023-06-26T09:14:21;2.30;;;1.50;;
70667;SDS011;58242;51.250;-1.118;2023-06-26T09:16:47;2.20;;;1.52;;
70667;SDS011;58242;51.250;-1.118;2023-06-26T09:19:12;3.95;;;1.52;;
70667;SDS011;58242;51.250;-1.118;2023-06-26T09:21:41;2.28;;;1.52;;
70667;SDS011;58242;51.250;-1.118;2023-06-26T09:24:08;2.88;;;1.23;;
70667;SDS011;58242;51.250;-1.118;2023-06-26T09:26:37;1.67;;;1.30;;
70667;SDS011;58242;51.250;-1.118;2023-06-26T09:29:05;1.45;;;1.35;;
70667;SDS011;58242;51.250;-1.118;2023-06-26T09:31:30;1.70;;;1.40;;
70667;SDS011;58242;51.250;-1.118;2023-06-26T09:33:58;2.05;;;1.40;;
70667;SDS011;58242;51.250;-1.118;2023-06-26T09:36:26;3.88;;;1.58;;
70667;SDS011;58242;51.250;-1.118;2023-06-26T09:41:19;1.85;;;1.38;;
70667;SDS011;58242;51.250;-1.118;2023-06-26T09:43:48;3.85;;;1.67;;
70667;SDS011;58242;51.250;-1.118;2023-06-26T09:46:24;4.40;;;2.00;;
70667;SDS011;58242;51.250;-1.118;2023-06-26T09:49:04;1.50;;;1.40;;
70667;SDS011;58242;51.250;-1.118;2023-06-26T09:51:35;2.80;;;1.90;;
70667;SDS011;58242;51.250;-1.118;2023-06-26T09:54:02;1.95;;;1.80;;
70667;SDS011;58242;51.250;-1.118;2023-06-26T09:56:28;1.67;;;1.55;;
70667;SDS011;58242;51.250;-1.118;2023-06-26T09:59:01;2.80;;;1.65;;
70667;SDS011;58242;51.250;-1.118;2023-06-26T10:01:29;1.60;;;1.50;;
70667;SDS011;58242;51.250;-1.118;2023-06-26T10:03:56;2.53;;;1.80;;
70667;SDS011;58242;51.250;-1.118;2023-06-26T10:06:28;2.58;;;1.63;;
70667;SDS011;58242;51.250;-1.118;2023-06-26T10:08:58;1.75;;;1.63;;
70667;SDS011;58242;51.250;-1.118;2023-06-26T10:11:25;1.35;;;1.35;;
70667;SDS011;58242;51.250;-1.118;2023-06-26T10:13:57;2.47;;;1.73;;
70667;SDS011;58242;51.250;-1.118;2023-06-26T10:16:25;2.42;;;1.30;;
70667;SDS011;58242;51.250;-1.118;2023-06-26T10:18:54;1.40;;;1.30;;
70667;SDS011;58242;51.250;-1.118;2023-06-26T10:21:24;1.65;;;1.20;;
70667;SDS011;58242;51.250;-1.118;2023-06-26T10:23:51;2.03;;;1.60;;
70667;SDS011;58242;51.250;-1.118;2023-06-26T10:26:19;1.20;;;1.10;;
70667;SDS011;58242;51.250;-1.118;2023-06-26T10:28:46;1.63;;;1.33;;
70667;SDS011;58242;51.250;-1.118;2023-06-26T10:31:17;2.45;;;1.50;;
70667;SDS011;58242;51.250;-1.118;2023-06-26T10:33:46;1.40;;;1.30;;
70667;SDS011;58242;51.250;-1.118;2023-06-26T10:36:13;1.88;;;1.33;;
70667;SDS011;58242;51.250;-1.118;2023-06-26T10:38:52;1.40;;;1.30;;
70667;SDS011;58242;51.250;-1.118;2023-06-26T10:41:20;3.33;;;1.70;;
70667;SDS011;58242;51.250;-1.118;2023-06-26T10:43:51;1.88;;;1.35;;
70667;SDS011;58242;51.250;-1.118;2023-06-26T10:46:51;1.10;;;1.10;;
70667;SDS011;58242;51.250;-1.118;2023-06-26T10:49:18;1.73;;;1.33;;
70667;SDS011;58242;51.250;-1.118;2023-06-26T10:51:49;1.70;;;1.60;;
70667;SDS011;58242;51.250;-1.118;2023-06-26T10:54:16;1.55;;;1.45;;
70667;SDS011;58242;51.250;-1.118;2023-06-26T10:56:46;2.72;;;1.65;;
70667;SDS011;58242;51.250;-1.118;2023-06-26T10:59:14;2.63;;;1.42;;
70667;SDS011;58242;51.250;-1.118;2023-06-26T11:01:44;1.70;;;1.58;;
70667;SDS011;58242;51.250;-1.118;2023-06-26T11:04:13;2.28;;;1.48;;
70667;SDS011;58242;51.250;-1.118;2023-06-26T11:06:40;1.50;;;1.17;;
70667;SDS011;58242;51.250;-1.118;2023-06-26T11:09:10;4.70;;;2.00;;
70667;SDS011;58242;51.250;-1.118;2023-06-26T11:14:26;1.92;;;1.30;;
70667;SDS011;58242;51.250;-1.118;2023-06-26T11:16:55;1.85;;;1.20;;
70667;SDS011;58242;51.250;-1.118;2023-06-26T11:19:22;2.83;;;1.55;;
70667;SDS011;58242;51.250;-1.118;2023-06-26T11:21:47;1.98;;;1.67;;
70667;SDS011;58242;51.250;-1.118;2023-06-26T11:24:13;3.55;;;1.73;;
70667;SDS011;58242;51.250;-1.118;2023-06-26T11:26:42;3.70;;;1.77;;
70667;SDS011;58242;51.250;-1.118;2023-06-26T11:29:09;1.90;;;1.25;;
70667;SDS011;58242;51.250;-1.118;2023-06-26T11:31:37;2.05;;;1.70;;
70667;SDS011;58242;51.250;-1.118;2023-06-26T11:34:07;2.05;;;1.30;;
70667;SDS011;58242;51.250;-1.118;2023-06-26T11:36:35;1.45;;;1.35;;
70667;SDS011;58242;51.250;-1.118;2023-06-26T11:39:02;1.30;;;1.20;;
70667;SDS011;58242;51.250;-1.118;2023-06-26T11:44:00;2.30;;;1.52;;
70667;SDS011;58242;51.250;-1.118;2023-06-26T11:46:27;1.50;;;1.40;;
70667;SDS011;58242;51.250;-1.118;2023-06-26T11:48:53;1.98;;;1.40;;
70667;SDS011;58242;51.250;-1.118;2023-06-26T11:51:19;1.80;;;1.70;;
70667;SDS011;58242;51.250;-1.118;2023-06-26T11:53:45;6.40;;;2.05;;
70667;SDS011;58242;51.250;-1.118;2023-06-26T11:56:12;1.83;;;1.40;;
70667;SDS011;58242;51.250;-1.118;2023-06-26T12:04:02;1.40;;;1.30;;
70667;SDS011;58242;51.250;-1.118;2023-06-26T12:06:33;1.42;;;1.33;;
70667;SDS011;58242;51.250;-1.118;2023-06-26T12:09:04;1.70;;;1.60;;
70667;SDS011;58242;51.250;-1.118;2023-06-26T12:11:32;1.38;;;1.27;;
70667;SDS011;58242;51.250;-1.118;2023-06-26T12:14:00;2.47;;;1.30;;
70667;SDS011;58242;51.250;-1.118;2023-06-26T12:16:29;1.67;;;1.33;;
70667;SDS011;58242;51.250;-1.118;2023-06-26T12:18:59;1.33;;;1.23;;
70667;SDS011;58242;51.250;-1.118;2023-06-26T12:24:03;1.40;;;1.30;;
70667;SDS011;58242;51.250;-1.118;2023-06-26T12:26:32;1.73;;;1.48;;
70667;SDS011;58242;51.250;-1.118;2023-06-26T12:29:07;1.10;;;1.10;;
70667;SDS011;58242;51.250;-1.118;2023-06-26T12:31:34;1.80;;;1.30;;
70667;SDS011;58242;51.250;-1.118;2023-06-26T12:34:01;1.42;;;1.33;;
70667;SDS011;58242;51.250;-1.118;2023-06-26T12:36:26;1.30;;;1.20;;
70667;SDS011;58242;51.250;-1.118;2023-06-26T12:38:52;1.52;;;1.42;;
70667;SDS011;58242;51.250;-1.118;2023-06-26T12:41:19;1.85;;;1.42;;
70667;SDS011;58242;51.250;-1.118;2023-06-26T12:43:45;1.27;;;1.15;;
70667;SDS011;58242;51.250;-1.118;2023-06-26T12:46:11;2.05;;;1.23;;
70667;SDS011;58242;51.250;-1.118;2023-06-26T12:48:41;2.97;;;1.30;;
70667;SDS011;58242;51.250;-1.118;2023-06-26T12:51:14;2.33;;;1.60;;
70667;SDS011;58242;51.250;-1.118;2023-06-26T12:53:42;1.38;;;1.27;;
70667;SDS011;58242;51.250;-1.118;2023-06-26T12:56:08;1.45;;;1.35;;
70667;SDS011;58242;51.250;-1.118;2023-06-26T12:58:34;2.47;;;1.40;;
70667;SDS011;58242;51.250;-1.118;2023-06-26T13:01:04;1.52;;;1.20;;
70667;SDS011;58242;51.250;-1.118;2023-06-26T13:03:32;1.23;;;1.10;;
70667;SDS011;58242;51.250;-1.118;2023-06-26T13:05:58;2.20;;;1.20;;
70667;SDS011;58242;51.250;-1.118;2023-06-26T13:08:23;1.20;;;1.20;;
70667;SDS011;58242;51.250;-1.118;2023-06-26T13:10:49;1.40;;;1.30;;
70667;SDS011;58242;51.250;-1.118;2023-06-26T13:13:15;1.73;;;1.30;;
70667;SDS011;58242;51.250;-1.118;2023-06-26T13:15:41;2.78;;;1.27;;
70667;SDS011;58242;51.250;-1.118;2023-06-26T13:18:07;4.20;;;1.65;;
70667;SDS011;58242;51.250;-1.118;2023-06-26T13:20:32;2.92;;;1.30;;
70667;SDS011;58242;51.250;-1.118;2023-06-26T13:22:58;1.95;;;1.42;;
70667;SDS011;58242;51.250;-1.118;2023-06-26T13:25:23;1.40;;;1.10;;
70667;SDS011;58242;51.250;-1.118;2023-06-26T13:27:49;1.73;;;1.38;;
70667;SDS011;58242;51.250;-1.118;2023-06-26T13:30:14;1.27;;;1.17;;
70667;SDS011;58242;51.250;-1.118;2023-06-26T13:32:40;1.27;;;1.08;;
70667;SDS011;58242;51.250;-1.118;2023-06-26T13:35:06;1.20;;;1.10;;
70667;SDS011;58242;51.250;-1.118;2023-06-26T13:37:32;1.52;;;1.00;;
70667;SDS011;58242;51.250;-1.118;2023-06-26T13:39:59;1.92;;;1.20;;
70667;SDS011;58242;51.250;-1.118;2023-06-26T13:42:25;1.20;;;1.10;;
70667;SDS011;58242;51.250;-1.118;2023-06-26T13:44:50;1.50;;;1.40;;
70667;SDS011;58242;51.250;-1.118;2023-06-26T13:47:15;0.90;;;0.90;;
70667;SDS011;58242;51.250;-1.118;2023-06-26T13:49:41;1.60;;;1.30;;
70667;SDS011;58242;51.250;-1.118;2023-06-26T13:52:07;1.52;;;1.42;;
70667;SDS011;58242;51.250;-1.118;2023-06-26T13:54:36;1.50;;;1.40;;
70667;SDS011;58242;51.250;-1.118;2023-06-26T13:57:04;1.30;;;1.20;;
70667;SDS011;58242;51.250;-1.118;2023-06-26T13:59:30;1.30;;;1.20;;
70667;SDS011;58242;51.250;-1.118;2023-06-26T14:01:56;2.15;;;1.60;;
70667;SDS011;58242;51.250;-1.118;2023-06-26T14:04:22;1.42;;;1.33;;
70667;SDS011;58242;51.250;-1.118;2023-06-26T14:06:47;1.40;;;1.30;;
70667;SDS011;58242;51.250;-1.118;2023-06-26T14:09:13;2.55;;;1.50;;
70667;SDS011;58242;51.250;-1.118;2023-06-26T14:11:38;1.80;;;1.42;;
70667;SDS011;58242;51.250;-1.118;2023-06-26T14:14:04;1.40;;;1.30;;
70667;SDS011;58242;51.250;-1.118;2023-06-26T14:16:30;1.88;;;1.20;;
70667;SDS011;58242;51.250;-1.118;2023-06-26T14:18:55;2.65;;;1.40;;
70667;SDS011;58242;51.250;-1.118;2023-06-26T14:21:21;1.60;;;1.50;;
70667;SDS011;58242;51.250;-1.118;2023-06-26T14:23:47;3.05;;;1.38;;
70667;SDS011;58242;51.250;-1.118;2023-06-26T14:26:12;1.55;;;1.45;;
70667;SDS011;58242;51.250;-1.118;2023-06-26T14:28:38;2.25;;;1.10;;
70667;SDS011;58242;51.250;-1.118;2023-06-26T14:31:04;3.30;;;1.40;;
70667;SDS011;58242;51.250;-1.118;2023-06-26T14:33:30;2.25;;;1.50;;
70667;SDS011;58242;51.250;-1.118;2023-06-26T14:35:55;1.70;;;1.33;;
70667;SDS011;58242;51.250;-1.118;2023-06-26T14:38:21;2.08;;;1.60;;
70667;SDS011;58242;51.250;-1.118;2023-06-26T14:40:46;3.65;;;1.80;;
70667;SDS011;58242;51.250;-1.118;2023-06-26T14:43:12;2.63;;;1.77;;
70667;SDS011;58242;51.250;-1.118;2023-06-26T14:45:38;2.28;;;1.40;;
70667;SDS011;58242;51.250;-1.118;2023-06-26T14:48:03;2.47;;;1.40;;
70667;SDS011;58242;51.250;-1.118;2023-06-26T14:50:29;2.80;;;1.40;;
70667;SDS011;58242;51.250;-1.118;2023-06-26T14:52:54;3.00;;;1.35;;
70667;SDS011;58242;51.250;-1.118;2023-06-26T14:55:20;3.50;;;1.83;;